To NAV CANADA Home Page Login to a new session Search on AWWS site Feedback and Comments Disclaimer Vers la page française équivalente Tips FAQ What's new on the site To the Forecasts and Observations / NOTAM section To "File a Flight Plan" website Publications and other links Update of the User's profile FIC Telephone Numbers My Weather Data Folder Route Weather Data Regional Weather Data Local Weather Data To the Forecasts and Observations / NOTAM section
Request Generated 07/31/2016 at 00:29:07 UTC . Weather information available at that time is displayed.

METAR/TAF

NATASHQUAN/QC    (show WxCam)

METAR CYNA 310000Z AUTO 35004KT 9SM FEW100 18/15 A2984 RMK SLP106
DENSITY ALT 500FT=
METAR CYNA 302300Z AUTO 34006KT 9SM SCT110 20/14 A2983 RMK SLP102
DENSITY ALT 600FT=
METAR CYNA 302200Z AUTO 27012KT 9SM OVC070 18/13 A2982 RMK LTNG DIST
NE SLP098 DENSITY ALT 500FT=

TAF AMD CYNA 302221Z 3022/3108 26015G25KT P6SM BKN070 PROB30
3022/3104 2SM TSRA BR BKN070CB
FM310400 36008KT P6SM SCT070
RMK FCST BASED ON AUTO OBS. NXT FCST BY 310200Z=
Your time UTC time
Weather data provided by Environment Canada and NAV CANADA